Latest Weather Observations for Murrurundi Gap

IDN60801

Issued at 6:33 pm EST Monday 29 August 2016 (issued every 30 minutes, with the page automatically refreshed every 10 minutes)

About weather observations | Map of weather stations | Latest weather observations for NSW | Other Formats
Station Details ID: 061392 Name: MURRURUNDI GAP AWS Lat: -31.74 Lon: 150.79 Height: 729.4 m
Data from the previous 72 hours. | See also: Recent months at Murrurundi Gap
Date/Time
EST
Temp
°C
App
Temp
°C
Dew
Point
°C
Rel
Hum
%
Delta-T
°C
Wind Press
QNH
hPa
Press
MSL
hPa
Rain since
9am
mm
Dir  Spd
km/h
Gust
km/h
Spd
kts
Gust
kts
29/06:30pm 12.2 8.7 5.6 64 3.2 SSE 13 15 7 8 1025.2 1025.1 0.0
29/06:00pm 12.4 8.9 5.3 62 3.4 SSE 13 17 7 9 1025.2 1025.1 0.0
29/05:30pm 13.5 10.8 5.4 58 4.0 SSE 9 9 5 5 1025.3 1025.2 0.0
29/05:00pm 14.3 13.1 4.6 52 4.7 CALM 0 0 0 0 1025.2 1025.1 0.0
29/04:30pm 14.9 12.1 3.4 46 5.4 W 7 9 4 5 1025.0 1024.9 0.0
29/04:00pm 15.7 12.2 3.5 44 5.8 NW 11 15 6 8 1024.8 1024.6 0.0
29/03:30pm 15.6 11.7 3.4 44 5.8 NW 13 15 7 8 1024.6 1024.4 0.0
29/03:00pm 15.4 10.4 1.5 39 6.3 NNW 17 20 9 11 1024.8 1024.6 0.0
29/02:30pm 15.6 10.9 3.1 43 5.9 NW 17 20 9 11 1025.0 1024.9 0.0
29/02:00pm 15.7 11.2 2.2 40 6.2 NW 15 20 8 11 1024.7 1024.5 0.0
29/01:30pm 15.4 11.1 0.8 37 6.6 NW 13 20 7 11 1024.6 1024.4 0.0
29/01:00pm 16.1 11.2 -0.2 33 7.2 NNW 15 20 8 11 1024.9 1024.7 0.0
29/12:30pm 16.1 10.9 0.3 34 7.1 NNW 17 22 9 12 1025.2 1025.1 0.0
29/12:00pm 16.7 13.2 1.2 35 7.1 WNW 9 17 5 9 1025.6 1025.5 0.0
29/11:30am 15.3 11.0 0.7 37 6.5 NW 13 20 7 11 1026.2 1026.1 0.0
29/11:00am 15.6 13.3 5.5 51 5.0 SE 7 9 4 5 1026.4 1026.3 0.0
29/10:30am 13.9 10.1 3.9 51 4.7 SE 13 17 7 9 1026.5 1026.4 0.0
29/10:00am 14.2 11.5 2.8 46 5.3 ESE 6 9 3 5 1026.8 1026.7 0.0
29/09:30am 12.5 8.7 1.8 48 4.8 ESE 11 15 6 8 1027.0 1026.9 0.0
29/09:00am 12.1 9.1 4.3 59 3.7 SE 9 15 5 8 1026.6 1026.5 0.0
29/08:30am 11.1 7.8 2.4 55 3.9 SE 9 13 5 7 1026.5 1026.4 0.0
29/08:00am 11.1 7.8 2.2 54 4.0 ESE 9 13 5 7 1026.6 1026.5 0.0
29/07:30am 10.1 7.1 2.0 57 3.6 SE 7 9 4 5 1026.2 1026.1 0.0
29/07:00am 8.9 5.5 1.6 60 3.1 SE 9 9 5 5 1025.7 1025.6 0.0
29/06:30am 8.3 5.3 0.8 59 3.2 ESE 6 7 3 4 1025.3 1025.2 0.0
29/06:00am 8.3 5.1 0.8 59 3.1 SE 7 9 4 5 1025.0 1024.9 0.0
29/05:30am 7.3 3.7 0.5 62 2.8 SE 9 11 5 6 1024.8 1024.6 0.0
29/05:00am 8.9 5.8 0.4 55 3.6 SSE 6 7 3 4 1024.6 1024.4 0.0
29/04:30am 8.3 5.1 0.8 59 3.2 SSE 7 9 4 5 1024.0 1023.9 0.0
29/04:00am 8.3 4.8 1.0 60 3.1 SE 9 11 5 6 1023.6 1023.4 0.0
29/03:30am 8.0 4.0 0.5 59 3.1 SE 11 11 6 6 1023.8 1023.7 0.0
29/03:00am 8.1 4.1 0.3 58 3.2 SE 11 13 6 7 1023.6 1023.4 0.0
29/02:30am 8.4 4.4 0.4 57 3.3 SE 11 11 6 6 1024.0 1023.9 0.0
29/02:00am 8.6 6.6 -0.2 54 3.6 CALM 0 0 0 0 1024.1 1024.0 0.0
29/01:30am 9.0 7.0 -0.3 52 3.8 CALM 0 0 0 0 1024.3 1024.2 0.0
29/01:00am 8.3 6.3 -0.4 54 3.5 CALM 0 0 0 0 1024.3 1024.2 0.0
29/12:30am 9.7 7.6 -0.8 48 4.3 CALM 0 0 0 0 1024.0 1023.9 0.0
29/12:00am 9.4 5.6 -0.8 49 4.2 WNW 9 11 5 6 1024.6 1024.4 0.0
 
Date/Time
EST
Temp
°C
App
Temp
°C
Dew
Point
°C
Rel
Hum
%
Delta-T
°C
Wind Press
QNH
hPa
Press
MSL
hPa
Rain since
9am
mm
Dir  Spd
km/h
Gust
km/h
Spd
kts
Gust
kts
28/11:30pm 9.6 7.5 -0.9 48 4.3 CALM 0 6 0 3 1024.3 1024.2 0.0
28/11:00pm 9.5 6.1 -0.7 49 4.2 WNW 7 9 4 5 1024.4 1024.3 0.0
28/10:30pm 9.7 7.6 -0.8 48 4.3 CALM 0 6 0 3 1024.3 1024.2 0.0
28/10:00pm 10.1 6.9 -0.4 48 4.4 S 6 7 3 4 1024.1 1024.0 0.0
28/09:30pm 9.9 7.5 -0.6 48 4.4 W 2 7 1 4 1024.1 1024.0 0.0
28/09:00pm 9.7 6.4 -0.2 50 4.1 NW 7 15 4 8 1024.0 1023.9 0.0
28/08:30pm 10.0 5.5 -0.2 49 4.3 NW 13 15 7 8 1024.0 1023.9 0.0
28/08:00pm 9.7 6.0 0.1 51 4.0 NW 9 11 5 6 1023.9 1023.8 0.0
28/07:30pm 10.0 7.0 0.6 52 4.0 NW 6 9 3 5 1024.0 1023.9 0.0
28/07:00pm 9.8 6.9 1.2 55 3.7 NW 6 7 3 4 1023.7 1023.5 0.0
28/06:30pm 10.1 6.0 2.0 57 3.6 NNW 13 15 7 8 1023.4 1023.2 0.0
28/06:00pm 10.0 6.3 2.4 59 3.4 NNW 11 13 6 7 1023.1 1022.9 0.0
28/05:30pm 11.1 6.6 2.2 54 4.0 NNW 15 17 8 9 1022.9 1022.8 0.0
28/05:00pm 11.9 7.0 1.8 50 4.5 NNW 17 19 9 10 1022.7 1022.6 0.0
28/04:30pm 12.5 7.2 2.1 49 4.7 NNW 19 22 10 12 1022.5 1022.3 0.0
28/04:00pm 12.7 7.2 1.7 47 4.9 NW 20 26 11 14 1022.4 1022.2 0.0
28/03:30pm 13.0 7.6 2.3 48 4.9 NW 20 26 11 14 1022.4 1022.2 0.0
28/03:00pm 12.5 6.2 1.8 48 4.8 NW 24 30 13 16 1022.3 1022.1 0.0
28/02:30pm 12.6 7.1 1.6 47 4.9 NW 20 26 11 14 1022.3 1022.1 0.0
28/02:00pm 12.2 5.9 1.8 49 4.6 NNW 24 32 13 17 1022.6 1022.5 0.0
28/01:30pm 11.6 5.6 1.0 48 4.6 NNW 22 32 12 17 1022.7 1022.6 0.0
28/01:00pm 12.0 6.1 1.6 49 4.6 NNW 22 30 12 16 1022.9 1022.8 0.0
28/12:30pm 11.6 5.0 2.1 52 4.3 NNW 26 35 14 19 1023.4 1023.2 0.0
28/12:00pm 10.7 4.1 2.0 55 3.8 NNW 26 33 14 18 1023.6 1023.4 0.0
28/11:30am 10.6 4.3 1.4 53 4.0 N 24 32 13 17 1023.8 1023.7 0.0
28/11:00am 9.9 4.0 4.1 67 2.7 NW 24 30 13 16 1024.3 1024.2 0.0
28/10:30am 9.4 3.9 4.0 69 2.5 NNW 22 28 12 15 1024.7 1024.5 0.0
28/10:00am 8.8 3.3 3.8 71 2.3 NNW 22 28 12 15 1024.8 1024.6 0.0
28/09:30am 8.6 3.8 4.6 76 1.8 NW 19 22 10 12 1024.7 1024.5 0.0
28/09:00am 8.0 3.5 4.4 78 1.6 NW 17 20 9 11 1024.8 1024.6 0.0
28/08:30am 7.1 2.5 3.5 78 1.6 NNW 17 22 9 12 1024.8 1024.6 0.0
28/08:00am 6.5 1.9 3.8 83 1.2 NNW 17 20 9 11 1024.7 1024.5 0.0
28/07:30am 5.5 1.6 3.3 86 1.0 NW 13 13 7 7 1024.1 1024.0 0.0
28/07:00am 4.3 0.2 2.3 87 0.8 NW 13 15 7 8 1023.8 1023.7 0.0
28/06:30am 4.7 1.5 2.9 88 0.8 NW 9 11 5 6 1023.4 1023.2 0.0
28/06:00am 4.5 0.8 2.4 86 0.9 NW 11 13 6 7 1023.1 1022.9 0.0
28/05:30am 5.4 3.9 2.9 84 1.1 CALM 0 6 0 3 1022.9 1022.8 0.0
28/05:00am 5.7 2.5 3.0 83 1.2 NW 9 11 5 6 1022.8 1022.7 0.0
28/04:30am 6.1 4.7 3.3 82 1.2 CALM 0 0 0 0 1022.6 1022.5 0.0
28/04:00am 6.2 4.5 2.1 75 1.7 CALM 0 0 0 0 1022.5 1022.3 0.0
28/03:30am 6.4 4.8 2.5 76 1.7 CALM 0 0 0 0 1022.4 1022.2 0.0
28/03:00am 5.9 4.4 3.2 83 1.2 CALM 0 0 0 0 1022.5 1022.3 0.0
28/02:30am 6.0 4.6 3.7 85 1.0 CALM 0 0 0 0 1022.5 1022.3 0.0
28/02:00am 6.0 3.5 3.5 84 1.1 SE 6 7 3 4 1022.9 1022.8 0.0
28/01:30am 6.7 4.2 3.7 81 1.3 WNW 6 9 3 5 1023.1 1022.9 0.0
28/01:00am 7.1 3.6 3.7 79 1.5 NNW 11 13 6 7 1023.1 1022.9 0.0
28/12:30am 7.4 3.1 3.5 76 1.7 NNW 15 17 8 9 1023.3 1023.1 0.0
28/12:00am 7.7 3.8 3.4 74 1.9 NNW 13 15 7 8 1023.3 1023.1 0.0
 
Date/Time
EST
Temp
°C
App
Temp
°C
Dew
Point
°C
Rel
Hum
%
Delta-T
°C
Wind Press
QNH
hPa
Press
MSL
hPa
Rain since
9am
mm
Dir  Spd
km/h
Gust
km/h
Spd
kts
Gust
kts
27/11:30pm 7.9 4.4 3.4 73 2.0 NW 11 13 6 7 1023.2 1023.0 0.0
27/11:00pm 8.1 4.5 3.2 71 2.2 NNW 11 13 6 7 1023.1 1022.9 0.0
27/10:30pm 7.7 4.5 2.8 71 2.2 NW 9 11 5 6 1022.7 1022.6 0.0
27/10:00pm 8.9 7.4 2.9 66 2.7 CALM 0 2 0 1 1022.8 1022.7 0.0
27/09:30pm 9.0 7.5 3.0 66 2.7 CALM 0 0 0 0 1023.1 1022.9 0.0
27/09:00pm 9.2 7.7 3.0 65 2.8 CALM 0 0 0 0 1023.1 1022.9 0.0
27/08:30pm 9.5 8.1 3.3 65 2.8 CALM 0 0 0 0 1022.8 1022.7 0.0
27/08:00pm 9.6 6.8 3.1 64 2.9 ESE 7 7 4 4 1022.6 1022.5 0.0
27/07:30pm 9.7 6.9 3.2 64 2.9 ESE 7 9 4 5 1022.6 1022.5 0.0
27/07:00pm 9.5 6.9 3.3 65 2.8 SSE 6 7 3 4 1022.6 1022.5 0.0
27/06:30pm 10.2 8.8 3.3 62 3.1 CALM 0 0 0 0 1022.4 1022.2 0.0
27/06:00pm 10.5 9.1 3.3 61 3.3 CALM 0 0 0 0 1022.0 1021.8 0.0
27/05:30pm 11.1 8.3 3.2 58 3.6 W 7 9 4 5 1021.8 1021.6 0.0
27/05:00pm 12.6 10.0 4.1 56 4.0 SW 7 11 4 6 1021.7 1021.5 0.0
27/04:30pm 12.2 9.2 4.2 58 3.8 SSW 9 11 5 6 1021.3 1021.1 0.0
27/04:00pm 12.4 9.7 3.9 56 4.0 S 7 9 4 5 1020.9 1020.7 0.0
27/03:30pm 11.6 8.5 3.4 57 3.8 SE 9 13 5 7 1021.0 1020.8 0.0
27/03:00pm 12.5 9.4 3.5 54 4.2 SSE 9 17 5 9 1021.1 1020.9 0.0
27/02:30pm 13.7 11.5 6.1 60 3.8 SSW 7 11 4 6 1021.2 1021.0 0.0
27/02:00pm 11.8 8.3 3.6 57 3.8 SSW 11 15 6 8 1021.5 1021.4 0.0
27/01:30pm 12.4 9.1 4.6 59 3.7 SSW 11 17 6 9 1021.9 1021.7 0.0
27/01:00pm 12.0 8.9 3.8 57 3.8 SSE 9 13 5 7 1022.3 1022.1 0.0
27/12:30pm 11.0 6.4 3.8 61 3.3 SE 17 24 9 13 1022.5 1022.3 0.0
27/12:00pm 11.5 6.4 4.3 61 3.4 ESE 20 30 11 16 1022.6 1022.5 0.0
27/11:30am 11.3 5.6 4.7 64 3.1 SE 24 35 13 19 1022.7 1022.6 0.0
27/11:00am 10.3 4.4 4.0 65 2.9 SE 24 30 13 16 1022.9 1022.8 0.0
27/10:30am 9.8 4.8 4.8 71 2.3 SE 20 28 11 15 1022.9 1022.8 0.0
27/10:00am 9.3 3.7 5.3 76 1.9 SE 24 30 13 16 1022.6 1022.5 0.0
27/09:30am 8.3 3.4 5.1 80 1.5 SE 20 26 11 14 1023.3 1023.1 0.0
27/09:00am 7.7 3.0 5.0 83 1.2 SE 19 26 10 14 1022.9 1022.8 0.0
27/08:30am 6.0 2.2 3.8 86 1.0 SE 13 20 7 11 1022.7 1022.6 0.0
27/08:00am 5.5 1.3 3.8 89 0.7 SSE 15 20 8 11 1022.4 1022.2 0.0
27/07:30am 4.9 -0.4 3.1 88 0.8 SE 20 24 11 13 1021.7 1021.5 0.0
27/07:00am 4.1 -0.7 2.6 90 0.6 SE 17 22 9 12 1021.5 1021.4 0.0
27/06:30am 3.9 -2.2 2.6 91 0.5 SE 24 32 13 17 1021.1 1020.9 0.0
27/06:00am 3.5 -3.7 2.8 95 0.3 SE 30 35 16 19 1020.4 1020.2 0.0
27/05:30am 2.9 -4.2 1.6 91 0.5 SSE 28 33 15 18 1020.2 1019.9 0.0
27/05:00am 2.6 -4.1 1.3 91 0.5 SSE 26 32 14 17 1019.8 1019.6 0.0
27/04:30am 2.6 -3.7 1.4 92 0.5 SSE 24 30 13 16 1019.8 1019.6 0.0
27/04:00am 3.1 -3.2 1.6 90 0.6 SSE 24 32 13 17 1019.8 1019.6 0.0
27/03:30am 2.6 -2.5 0.8 88 0.7 SSE 17 20 9 11 1019.8 1019.6 0.0
27/03:00am 4.3 -1.3 1.2 80 1.3 SSE 20 26 11 14 1019.9 1019.7 0.0
27/02:30am 3.6 -0.7 1.2 84 1.0 SE 13 15 7 8 1020.2 1019.9 0.0
27/02:00am 4.1 0.1 0.8 79 1.3 SE 11 13 6 7 1020.6 1020.4 0.0
27/01:30am 5.0 1.0 0.8 74 1.7 SE 11 13 6 7 1020.6 1020.4 0.0
27/01:00am 5.6 2.0 0.6 70 2.0 SE 9 11 5 6 1020.6 1020.4 0.0
27/12:30am 6.1 4.1 0.2 66 2.4 CALM 0 0 0 0 1020.7 1020.5 0.0
27/12:00am 6.4 4.5 0.5 66 2.4 CALM 0 0 0 0 1020.7 1020.5 0.0
 
Date/Time
EST
Temp
°C
App
Temp
°C
Dew
Point
°C
Rel
Hum
%
Delta-T
°C
Wind Press
QNH
hPa
Press
MSL
hPa
Rain since
9am
mm
Dir  Spd
km/h
Gust
km/h
Spd
kts
Gust
kts
26/11:30pm 6.2 4.3 0.3 66 2.4 CALM 0 0 0 0 1020.6 1020.4 0.0
26/11:00pm 6.7 4.7 0.2 63 2.6 CALM 0 0 0 0 1020.7 1020.5 0.0
26/10:30pm 6.3 4.4 0.4 66 2.4 CALM 0 0 0 0 1020.7 1020.5 0.0
26/10:00pm 7.0 5.0 0.2 62 2.8 CALM 0 0 0 0 1020.6 1020.4 0.0
26/09:30pm 7.1 5.1 0.1 61 2.9 CALM 0 0 0 0 1020.5 1020.3 0.0
26/09:00pm 7.0 5.0 0.2 62 2.8 CALM 0 0 0 0 1020.4 1020.2 0.0
26/08:30pm 6.9 4.9 0.1 62 2.8 CALM 0 0 0 0 1020.4 1020.2 0.0
26/08:00pm 6.9 5.0 0.4 63 2.7 CALM 0 0 0 0 1020.2 1019.9 0.0
26/07:30pm 6.8 4.1 0.3 63 2.7 W 4 7 2 4 1019.9 1019.7 0.0
26/07:00pm 6.6 4.8 0.9 67 2.4 CALM 0 0 0 0 1019.7 1019.5 0.0

Other Formats:

Comma delimited format used in spreadsheet applications
http://www.bom.gov.au/fwo/IDN60801/IDN60801.95747.axf

JavaScript Object Notation format (JSON) in row-major order
http://www.bom.gov.au/fwo/IDN60801/IDN60801.95747.json